sensor_id;sensor_type;location;lat;lon;timestamp;temperature;humidity
74171;DHT22;62526;50.948;6.590;2023-12-28T00:00:35;13.00;99.90
74171;DHT22;62526;50.948;6.590;2023-12-28T00:03:04;13.00;99.90
74171;DHT22;62526;50.948;6.590;2023-12-28T00:05:33;12.70;99.90
74171;DHT22;62526;50.948;6.590;2023-12-28T00:08:00;12.50;99.90
74171;DHT22;62526;50.948;6.590;2023-12-28T00:10:27;12.30;99.90
74171;DHT22;62526;50.948;6.590;2023-12-28T00:12:54;12.30;99.90
74171;DHT22;62526;50.948;6.590;2023-12-28T00:15:21;12.40;99.90
74171;DHT22;62526;50.948;6.590;2023-12-28T00:17:47;12.30;99.90
74171;DHT22;62526;50.948;6.590;2023-12-28T00:20:14;12.10;99.90
74171;DHT22;62526;50.948;6.590;2023-12-28T00:22:41;12.10;99.90
74171;DHT22;62526;50.948;6.590;2023-12-28T00:25:08;11.90;99.90
74171;DHT22;62526;50.948;6.590;2023-12-28T00:27:34;12.10;99.90
74171;DHT22;62526;50.948;6.590;2023-12-28T00:30:01;12.50;99.90
74171;DHT22;62526;50.948;6.590;2023-12-28T00:32:28;12.50;99.90
74171;DHT22;62526;50.948;6.590;2023-12-28T00:34:54;12.60;99.90
74171;DHT22;62526;50.948;6.590;2023-12-28T00:37:21;12.40;99.90
74171;DHT22;62526;50.948;6.590;2023-12-28T00:39:48;12.60;99.90
74171;DHT22;62526;50.948;6.590;2023-12-28T00:42:14;12.90;99.90
74171;DHT22;62526;50.948;6.590;2023-12-28T00:44:41;12.70;99.90
74171;DHT22;62526;50.948;6.590;2023-12-28T00:47:07;12.80;99.90
74171;DHT22;62526;50.948;6.590;2023-12-28T00:49:36;13.00;99.90
74171;DHT22;62526;50.948;6.590;2023-12-28T00:52:03;13.10;99.90
74171;DHT22;62526;50.948;6.590;2023-12-28T00:54:29;13.00;99.90
74171;DHT22;62526;50.948;6.590;2023-12-28T00:56:56;12.90;99.90
74171;DHT22;62526;50.948;6.590;2023-12-28T00:59:23;13.00;99.90
74171;DHT22;62526;50.948;6.590;2023-12-28T01:01:50;13.10;99.90
74171;DHT22;62526;50.948;6.590;2023-12-28T01:04:17;13.20;99.90
74171;DHT22;62526;50.948;6.590;2023-12-28T01:06:46;13.30;99.90
74171;DHT22;62526;50.948;6.590;2023-12-28T01:09:12;13.10;99.90
74171;DHT22;62526;50.948;6.590;2023-12-28T01:11:39;13.10;99.90
74171;DHT22;62526;50.948;6.590;2023-12-28T01:14:07;13.20;99.90
74171;DHT22;62526;50.948;6.590;2023-12-28T01:16:34;13.20;99.90
74171;DHT22;62526;50.948;6.590;2023-12-28T01:19:01;13.10;99.90
74171;DHT22;62526;50.948;6.590;2023-12-28T01:21:27;12.90;99.90
74171;DHT22;62526;50.948;6.590;2023-12-28T01:23:54;12.90;99.90
74171;DHT22;62526;50.948;6.590;2023-12-28T01:26:21;12.90;99.90
74171;DHT22;62526;50.948;6.590;2023-12-28T01:28:48;12.80;99.90
74171;DHT22;62526;50.948;6.590;2023-12-28T01:31:14;12.70;99.90
74171;DHT22;62526;50.948;6.590;2023-12-28T01:33:41;12.80;99.90
74171;DHT22;62526;50.948;6.590;2023-12-28T01:36:17;12.90;99.90
74171;DHT22;62526;50.948;6.590;2023-12-28T01:38:43;13.10;99.90
74171;DHT22;62526;50.948;6.590;2023-12-28T01:41:13;12.90;99.90
74171;DHT22;62526;50.948;6.590;2023-12-28T01:43:39;13.00;99.90
74171;DHT22;62526;50.948;6.590;2023-12-28T01:46:06;13.00;99.90
74171;DHT22;62526;50.948;6.590;2023-12-28T01:48:33;13.00;99.90
74171;DHT22;62526;50.948;6.590;2023-12-28T01:51:00;13.10;99.90
74171;DHT22;62526;50.948;6.590;2023-12-28T01:53:27;13.00;99.90
74171;DHT22;62526;50.948;6.590;2023-12-28T01:55:53;12.70;99.90
74171;DHT22;62526;50.948;6.590;2023-12-28T01:58:20;12.60;99.90
74171;DHT22;62526;50.948;6.590;2023-12-28T02:00:49;12.80;99.90
74171;DHT22;62526;50.948;6.590;2023-12-28T02:03:15;12.70;99.90
74171;DHT22;62526;50.948;6.590;2023-12-28T02:05:42;12.80;99.90
74171;DHT22;62526;50.948;6.590;2023-12-28T02:08:14;12.90;99.90
74171;DHT22;62526;50.948;6.590;2023-12-28T02:10:42;13.00;99.90
74171;DHT22;62526;50.948;6.590;2023-12-28T02:13:15;13.00;99.90
74171;DHT22;62526;50.948;6.590;2023-12-28T02:15:42;13.00;99.90
74171;DHT22;62526;50.948;6.590;2023-12-28T02:18:11;13.10;99.90
74171;DHT22;62526;50.948;6.590;2023-12-28T02:20:37;13.20;99.90
74171;DHT22;62526;50.948;6.590;2023-12-28T02:23:03;13.30;99.90
74171;DHT22;62526;50.948;6.590;2023-12-28T02:25:30;13.20;99.90
74171;DHT22;62526;50.948;6.590;2023-12-28T02:28:00;13.10;99.90
74171;DHT22;62526;50.948;6.590;2023-12-28T02:30:26;13.40;99.90
74171;DHT22;62526;50.948;6.590;2023-12-28T02:33:12;13.40;99.90
74171;DHT22;62526;50.948;6.590;2023-12-28T02:35:42;13.50;99.90
74171;DHT22;62526;50.948;6.590;2023-12-28T02:38:09;13.50;99.90
74171;DHT22;62526;50.948;6.590;2023-12-28T02:40:37;13.60;99.90
74171;DHT22;62526;50.948;6.590;2023-12-28T02:43:04;13.50;99.90
74171;DHT22;62526;50.948;6.590;2023-12-28T02:45:30;13.50;99.90
74171;DHT22;62526;50.948;6.590;2023-12-28T02:47:57;13.40;99.90
74171;DHT22;62526;50.948;6.590;2023-12-28T02:50:23;13.50;99.90
74171;DHT22;62526;50.948;6.590;2023-12-28T02:52:50;13.30;99.90
74171;DHT22;62526;50.948;6.590;2023-12-28T02:55:18;13.30;99.90
74171;DHT22;62526;50.948;6.590;2023-12-28T02:57:46;13.20;99.90
74171;DHT22;62526;50.948;6.590;2023-12-28T03:00:13;13.50;99.90
74171;DHT22;62526;50.948;6.590;2023-12-28T03:02:39;13.70;99.90
74171;DHT22;62526;50.948;6.590;2023-12-28T03:07:48;13.50;99.90
74171;DHT22;62526;50.948;6.590;2023-12-28T03:10:16;13.30;99.90
74171;DHT22;62526;50.948;6.590;2023-12-28T03:12:43;13.50;99.90
74171;DHT22;62526;50.948;6.590;2023-12-28T03:15:09;13.60;99.90
74171;DHT22;62526;50.948;6.590;2023-12-28T03:17:36;13.60;99.90
74171;DHT22;62526;50.948;6.590;2023-12-28T03:20:03;13.60;99.90
74171;DHT22;62526;50.948;6.590;2023-12-28T03:22:29;13.90;99.90
74171;DHT22;62526;50.948;6.590;2023-12-28T03:24:56;13.70;99.90
74171;DHT22;62526;50.948;6.590;2023-12-28T03:27:23;13.60;99.90
74171;DHT22;62526;50.948;6.590;2023-12-28T03:29:52;13.50;99.90
74171;DHT22;62526;50.948;6.590;2023-12-28T03:32:19;13.60;99.90
74171;DHT22;62526;50.948;6.590;2023-12-28T03:34:45;13.70;99.90
74171;DHT22;62526;50.948;6.590;2023-12-28T03:37:13;13.60;99.90
74171;DHT22;62526;50.948;6.590;2023-12-28T03:39:39;13.60;99.90
74171;DHT22;62526;50.948;6.590;2023-12-28T03:42:06;13.50;99.90
74171;DHT22;62526;50.948;6.590;2023-12-28T03:44:33;13.50;99.90
74171;DHT22;62526;50.948;6.590;2023-12-28T03:46:59;13.60;99.90
74171;DHT22;62526;50.948;6.590;2023-12-28T03:49:35;13.70;99.90
74171;DHT22;62526;50.948;6.590;2023-12-28T03:52:01;13.60;99.90
74171;DHT22;62526;50.948;6.590;2023-12-28T03:54:28;13.50;99.90
74171;DHT22;62526;50.948;6.590;2023-12-28T03:56:55;13.50;99.90
74171;DHT22;62526;50.948;6.590;2023-12-28T03:59:23;13.40;99.90
74171;DHT22;62526;50.948;6.590;2023-12-28T04:01:50;13.60;99.90
74171;DHT22;62526;50.948;6.590;2023-12-28T04:04:16;13.70;99.90
74171;DHT22;62526;50.948;6.590;2023-12-28T04:06:43;13.60;99.90
74171;DHT22;62526;50.948;6.590;2023-12-28T04:09:16;13.70;99.90
74171;DHT22;62526;50.948;6.590;2023-12-28T04:11:43;13.80;99.90
74171;DHT22;62526;50.948;6.590;2023-12-28T04:14:10;13.80;99.90
74171;DHT22;62526;50.948;6.590;2023-12-28T04:16:36;14.00;99.90
74171;DHT22;62526;50.948;6.590;2023-12-28T04:19:03;13.90;99.90
74171;DHT22;62526;50.948;6.590;2023-12-28T04:21:30;14.00;99.90
74171;DHT22;62526;50.948;6.590;2023-12-28T04:23:56;13.80;99.90
74171;DHT22;62526;50.948;6.590;2023-12-28T04:26:23;13.60;99.90
74171;DHT22;62526;50.948;6.590;2023-12-28T04:28:50;13.70;99.90
74171;DHT22;62526;50.948;6.590;2023-12-28T04:31:17;13.70;99.90
74171;DHT22;62526;50.948;6.590;2023-12-28T04:33:43;14.00;99.90
74171;DHT22;62526;50.948;6.590;2023-12-28T04:36:10;13.90;99.90
74171;DHT22;62526;50.948;6.590;2023-12-28T04:38:37;14.00;99.90
74171;DHT22;62526;50.948;6.590;2023-12-28T04:41:03;13.80;99.90
74171;DHT22;62526;50.948;6.590;2023-12-28T04:43:30;13.90;99.90
74171;DHT22;62526;50.948;6.590;2023-12-28T04:45:57;13.90;99.90
74171;DHT22;62526;50.948;6.590;2023-12-28T04:48:23;14.00;99.90
74171;DHT22;62526;50.948;6.590;2023-12-28T04:50:50;14.10;99.90
74171;DHT22;62526;50.948;6.590;2023-12-28T04:53:16;14.20;99.90
74171;DHT22;62526;50.948;6.590;2023-12-28T04:55:43;14.20;99.90
74171;DHT22;62526;50.948;6.590;2023-12-28T04:58:10;14.30;99.90
74171;DHT22;62526;50.948;6.590;2023-12-28T05:00:37;14.20;99.80
74171;DHT22;62526;50.948;6.590;2023-12-28T05:03:04;14.00;99.90
74171;DHT22;62526;50.948;6.590;2023-12-28T05:05:36;14.10;99.90
74171;DHT22;62526;50.948;6.590;2023-12-28T05:08:03;14.00;99.60
74171;DHT22;62526;50.948;6.590;2023-12-28T05:10:29;13.70;99.90
74171;DHT22;62526;50.948;6.590;2023-12-28T05:12:57;13.80;99.90
74171;DHT22;62526;50.948;6.590;2023-12-28T05:15:25;13.90;99.90
74171;DHT22;62526;50.948;6.590;2023-12-28T05:17:51;13.90;99.90
74171;DHT22;62526;50.948;6.590;2023-12-28T05:20:18;14.10;99.90
74171;DHT22;62526;50.948;6.590;2023-12-28T05:22:44;14.10;99.90
74171;DHT22;62526;50.948;6.590;2023-12-28T05:25:11;14.00;99.90
74171;DHT22;62526;50.948;6.590;2023-12-28T05:27:38;14.00;99.90
74171;DHT22;62526;50.948;6.590;2023-12-28T05:30:06;14.10;99.90
74171;DHT22;62526;50.948;6.590;2023-12-28T05:32:33;14.10;99.90
74171;DHT22;62526;50.948;6.590;2023-12-28T05:34:59;14.00;99.90
74171;DHT22;62526;50.948;6.590;2023-12-28T05:37:26;14.00;99.90
74171;DHT22;62526;50.948;6.590;2023-12-28T05:39:53;13.90;99.90
74171;DHT22;62526;50.948;6.590;2023-12-28T05:42:20;13.90;99.90
74171;DHT22;62526;50.948;6.590;2023-12-28T05:44:48;14.20;99.90
74171;DHT22;62526;50.948;6.590;2023-12-28T05:47:15;14.10;99.90
74171;DHT22;62526;50.948;6.590;2023-12-28T05:49:42;14.00;99.90
74171;DHT22;62526;50.948;6.590;2023-12-28T05:52:08;14.00;99.90
74171;DHT22;62526;50.948;6.590;2023-12-28T05:54:35;14.10;99.90
74171;DHT22;62526;50.948;6.590;2023-12-28T05:57:03;14.30;99.80
74171;DHT22;62526;50.948;6.590;2023-12-28T05:59:29;14.30;99.60
74171;DHT22;62526;50.948;6.590;2023-12-28T06:01:56;14.20;99.70
74171;DHT22;62526;50.948;6.590;2023-12-28T06:04:23;14.30;99.60
74171;DHT22;62526;50.948;6.590;2023-12-28T06:06:50;14.40;99.50
74171;DHT22;62526;50.948;6.590;2023-12-28T06:09:17;14.50;99.30
74171;DHT22;62526;50.948;6.590;2023-12-28T06:11:43;14.40;99.10
74171;DHT22;62526;50.948;6.590;2023-12-28T06:14:10;14.40;99.30
74171;DHT22;62526;50.948;6.590;2023-12-28T06:16:38;14.40;99.10
74171;DHT22;62526;50.948;6.590;2023-12-28T06:19:04;14.30;98.70
74171;DHT22;62526;50.948;6.590;2023-12-28T06:21:31;14.10;99.30
74171;DHT22;62526;50.948;6.590;2023-12-28T06:23:58;14.20;99.30
74171;DHT22;62526;50.948;6.590;2023-12-28T06:26:25;14.20;99.50
74171;DHT22;62526;50.948;6.590;2023-12-28T06:28:52;12.70;98.60
74171;DHT22;62526;50.948;6.590;2023-12-28T06:31:18;13.80;99.70
74171;DHT22;62526;50.948;6.590;2023-12-28T06:33:46;13.90;99.70
74171;DHT22;62526;50.948;6.590;2023-12-28T06:36:13;14.10;99.70
74171;DHT22;62526;50.948;6.590;2023-12-28T06:38:39;14.20;99.40
74171;DHT22;62526;50.948;6.590;2023-12-28T06:41:13;14.30;99.10
74171;DHT22;62526;50.948;6.590;2023-12-28T06:43:39;14.40;99.00
74171;DHT22;62526;50.948;6.590;2023-12-28T06:46:09;14.60;98.70
74171;DHT22;62526;50.948;6.590;2023-12-28T06:48:35;14.50;98.70
74171;DHT22;62526;50.948;6.590;2023-12-28T06:51:02;14.50;98.50
74171;DHT22;62526;50.948;6.590;2023-12-28T06:53:29;14.40;98.50
74171;DHT22;62526;50.948;6.590;2023-12-28T06:55:57;14.30;98.70
74171;DHT22;62526;50.948;6.590;2023-12-28T06:58:24;14.30;98.90
74171;DHT22;62526;50.948;6.590;2023-12-28T07:00:50;14.20;98.80
74171;DHT22;62526;50.948;6.590;2023-12-28T07:03:17;14.20;98.90
74171;DHT22;62526;50.948;6.590;2023-12-28T07:05:44;14.10;99.00
74171;DHT22;62526;50.948;6.590;2023-12-28T07:08:10;14.20;98.90
74171;DHT22;62526;50.948;6.590;2023-12-28T07:10:38;14.10;99.20
74171;DHT22;62526;50.948;6.590;2023-12-28T07:13:04;14.10;99.20
74171;DHT22;62526;50.948;6.590;2023-12-28T07:15:31;14.10;99.10
74171;DHT22;62526;50.948;6.590;2023-12-28T07:17:59;14.00;99.30
74171;DHT22;62526;50.948;6.590;2023-12-28T07:20:25;14.10;99.30
74171;DHT22;62526;50.948;6.590;2023-12-28T07:22:52;14.10;99.10
74171;DHT22;62526;50.948;6.590;2023-12-28T07:25:19;13.80;99.00
74171;DHT22;62526;50.948;6.590;2023-12-28T07:27:46;13.90;99.20
74171;DHT22;62526;50.948;6.590;2023-12-28T07:30:13;14.00;99.30
74171;DHT22;62526;50.948;6.590;2023-12-28T07:32:39;14.20;99.00
74171;DHT22;62526;50.948;6.590;2023-12-28T07:35:06;14.20;98.80
74171;DHT22;62526;50.948;6.590;2023-12-28T07:37:34;14.20;98.80
74171;DHT22;62526;50.948;6.590;2023-12-28T07:40:00;14.20;98.70
74171;DHT22;62526;50.948;6.590;2023-12-28T07:42:27;14.20;98.90
74171;DHT22;62526;50.948;6.590;2023-12-28T07:44:54;14.10;98.90
74171;DHT22;62526;50.948;6.590;2023-12-28T07:47:20;14.20;99.00
74171;DHT22;62526;50.948;6.590;2023-12-28T07:49:47;14.20;98.90
74171;DHT22;62526;50.948;6.590;2023-12-28T07:52:15;14.20;98.70
74171;DHT22;62526;50.948;6.590;2023-12-28T07:54:42;14.20;98.70
74171;DHT22;62526;50.948;6.590;2023-12-28T07:57:10;14.20;98.90
74171;DHT22;62526;50.948;6.590;2023-12-28T07:59:37;14.20;98.60
74171;DHT22;62526;50.948;6.590;2023-12-28T08:02:03;14.10;98.80
74171;DHT22;62526;50.948;6.590;2023-12-28T08:04:30;14.20;98.80
74171;DHT22;62526;50.948;6.590;2023-12-28T08:06:57;14.40;98.60
74171;DHT22;62526;50.948;6.590;2023-12-28T08:09:23;14.50;98.50
74171;DHT22;62526;50.948;6.590;2023-12-28T08:11:53;14.50;98.00
74171;DHT22;62526;50.948;6.590;2023-12-28T08:14:19;14.40;98.10
74171;DHT22;62526;50.948;6.590;2023-12-28T08:16:47;14.40;98.00
74171;DHT22;62526;50.948;6.590;2023-12-28T08:19:13;14.40;97.90
74171;DHT22;62526;50.948;6.590;2023-12-28T08:21:40;14.30;98.20
74171;DHT22;62526;50.948;6.590;2023-12-28T08:24:07;14.40;98.20
74171;DHT22;62526;50.948;6.590;2023-12-28T08:26:34;14.40;98.00
74171;DHT22;62526;50.948;6.590;2023-12-28T08:29:01;14.50;98.10
74171;DHT22;62526;50.948;6.590;2023-12-28T08:31:28;14.60;98.00
74171;DHT22;62526;50.948;6.590;2023-12-28T08:33:55;14.60;98.00
74171;DHT22;62526;50.948;6.590;2023-12-28T08:36:22;14.60;98.00
74171;DHT22;62526;50.948;6.590;2023-12-28T08:38:48;14.60;97.80
74171;DHT22;62526;50.948;6.590;2023-12-28T08:41:21;14.50;98.00
74171;DHT22;62526;50.948;6.590;2023-12-28T08:43:47;14.60;98.10
74171;DHT22;62526;50.948;6.590;2023-12-28T08:46:13;14.80;97.80
74171;DHT22;62526;50.948;6.590;2023-12-28T08:48:41;14.80;97.60
74171;DHT22;62526;50.948;6.590;2023-12-28T08:51:09;14.90;97.50
74171;DHT22;62526;50.948;6.590;2023-12-28T08:53:39;14.60;97.10
74171;DHT22;62526;50.948;6.590;2023-12-28T08:56:15;14.60;97.60
74171;DHT22;62526;50.948;6.590;2023-12-28T08:58:40;14.70;97.80
74171;DHT22;62526;50.948;6.590;2023-12-28T09:01:06;14.60;97.60
74171;DHT22;62526;50.948;6.590;2023-12-28T09:03:33;14.50;97.50
74171;DHT22;62526;50.948;6.590;2023-12-28T09:06:06;14.50;97.70
74171;DHT22;62526;50.948;6.590;2023-12-28T09:08:33;14.60;97.70
74171;DHT22;62526;50.948;6.590;2023-12-28T09:10:59;14.70;97.60
74171;DHT22;62526;50.948;6.590;2023-12-28T09:13:26;14.60;97.50
74171;DHT22;62526;50.948;6.590;2023-12-28T09:15:52;14.70;97.60
74171;DHT22;62526;50.948;6.590;2023-12-28T09:18:20;14.60;97.60
74171;DHT22;62526;50.948;6.590;2023-12-28T09:20:47;14.60;96.60
74171;DHT22;62526;50.948;6.590;2023-12-28T09:23:14;14.50;97.70
74171;DHT22;62526;50.948;6.590;2023-12-28T09:25:43;14.40;97.90
74171;DHT22;62526;50.948;6.590;2023-12-28T09:28:10;14.10;97.90
74171;DHT22;62526;50.948;6.590;2023-12-28T09:30:37;14.20;98.10
74171;DHT22;62526;50.948;6.590;2023-12-28T09:33:05;14.00;98.30
74171;DHT22;62526;50.948;6.590;2023-12-28T09:35:31;14.20;98.30
74171;DHT22;62526;50.948;6.590;2023-12-28T09:38:00;14.30;98.20
74171;DHT22;62526;50.948;6.590;2023-12-28T09:40:27;14.30;97.90
74171;DHT22;62526;50.948;6.590;2023-12-28T09:42:59;14.10;97.90
74171;DHT22;62526;50.948;6.590;2023-12-28T09:45:25;14.30;98.10
74171;DHT22;62526;50.948;6.590;2023-12-28T09:47:51;14.30;97.80
74171;DHT22;62526;50.948;6.590;2023-12-28T09:50:20;14.30;97.90
74171;DHT22;62526;50.948;6.590;2023-12-28T09:52:48;14.40;96.50
74171;DHT22;62526;50.948;6.590;2023-12-28T09:55:19;14.40;97.20
74171;DHT22;62526;50.948;6.590;2023-12-28T09:57:47;14.50;96.80
74171;DHT22;62526;50.948;6.590;2023-12-28T10:00:20;14.80;96.80
74171;DHT22;62526;50.948;6.590;2023-12-28T10:02:46;15.00;96.50
74171;DHT22;62526;50.948;6.590;2023-12-28T10:05:15;15.20;96.00
74171;DHT22;62526;50.948;6.590;2023-12-28T10:10:31;15.20;96.00
74171;DHT22;62526;50.948;6.590;2023-12-28T10:13:07;15.20;95.80
74171;DHT22;62526;50.948;6.590;2023-12-28T10:15:49;14.70;95.70
74171;DHT22;62526;50.948;6.590;2023-12-28T10:18:17;14.80;96.20
74171;DHT22;62526;50.948;6.590;2023-12-28T10:20:53;14.80;95.90
74171;DHT22;62526;50.948;6.590;2023-12-28T10:23:20;14.80;95.90
74171;DHT22;62526;50.948;6.590;2023-12-28T10:25:47;14.70;95.20
74171;DHT22;62526;50.948;6.590;2023-12-28T10:28:14;14.60;95.50
74171;DHT22;62526;50.948;6.590;2023-12-28T10:30:44;14.80;95.30
74171;DHT22;62526;50.948;6.590;2023-12-28T10:33:20;15.00;94.80
74171;DHT22;62526;50.948;6.590;2023-12-28T10:35:50;14.90;94.70
74171;DHT22;62526;50.948;6.590;2023-12-28T10:38:17;14.80;95.30
74171;DHT22;62526;50.948;6.590;2023-12-28T10:40:46;14.70;95.40
74171;DHT22;62526;50.948;6.590;2023-12-28T10:51:40;15.20;94.50
74171;DHT22;62526;50.948;6.590;2023-12-28T11:10:51;15.20;93.30
74171;DHT22;62526;50.948;6.590;2023-12-28T11:13:19;15.30;94.30
74171;DHT22;62526;50.948;6.590;2023-12-28T11:15:58;15.10;94.10
74171;DHT22;62526;50.948;6.590;2023-12-28T11:18:26;15.00;93.50
74171;DHT22;62526;50.948;6.590;2023-12-28T11:20:55;14.50;94.00
74171;DHT22;62526;50.948;6.590;2023-12-28T11:23:21;14.80;94.40
74171;DHT22;62526;50.948;6.590;2023-12-28T11:25:51;15.10;94.30
74171;DHT22;62526;50.948;6.590;2023-12-28T11:28:18;15.10;93.80
74171;DHT22;62526;50.948;6.590;2023-12-28T11:30:48;15.10;93.30
74171;DHT22;62526;50.948;6.590;2023-12-28T11:33:22;15.00;93.50
74171;DHT22;62526;50.948;6.590;2023-12-28T11:35:48;15.20;93.40
74171;DHT22;62526;50.948;6.590;2023-12-28T11:38:15;15.50;92.80
74171;DHT22;62526;50.948;6.590;2023-12-28T11:40:44;15.80;92.30
74171;DHT22;62526;50.948;6.590;2023-12-28T11:43:19;15.40;93.10
74171;DHT22;62526;50.948;6.590;2023-12-28T11:45:51;15.20;92.60
74171;DHT22;62526;50.948;6.590;2023-12-28T11:48:23;15.00;93.20
74171;DHT22;62526;50.948;6.590;2023-12-28T11:50:50;15.10;93.40
74171;DHT22;62526;50.948;6.590;2023-12-28T11:53:16;15.60;93.10
74171;DHT22;62526;50.948;6.590;2023-12-28T11:55:43;15.90;92.40
74171;DHT22;62526;50.948;6.590;2023-12-28T11:58:09;15.80;92.00
74171;DHT22;62526;50.948;6.590;2023-12-28T12:00:39;15.40;92.60
74171;DHT22;62526;50.948;6.590;2023-12-28T12:03:05;15.10;92.50
74171;DHT22;62526;50.948;6.590;2023-12-28T12:08:18;14.60;93.90
74171;DHT22;62526;50.948;6.590;2023-12-28T12:10:44;15.20;93.40
74171;DHT22;62526;50.948;6.590;2023-12-28T12:13:11;15.30;93.20
74171;DHT22;62526;50.948;6.590;2023-12-28T12:15:38;15.10;93.00
74171;DHT22;62526;50.948;6.590;2023-12-28T12:18:09;15.20;93.60
74171;DHT22;62526;50.948;6.590;2023-12-28T12:20:35;15.20;93.60
74171;DHT22;62526;50.948;6.590;2023-12-28T12:23:05;15.50;92.90
74171;DHT22;62526;50.948;6.590;2023-12-28T12:25:32;15.40;93.00
74171;DHT22;62526;50.948;6.590;2023-12-28T12:27:59;15.30;92.90
74171;DHT22;62526;50.948;6.590;2023-12-28T12:30:25;15.30;92.20
74171;DHT22;62526;50.948;6.590;2023-12-28T12:32:52;15.40;92.00
74171;DHT22;62526;50.948;6.590;2023-12-28T12:35:20;15.40;92.90
74171;DHT22;62526;50.948;6.590;2023-12-28T12:37:53;15.50;92.60
74171;DHT22;62526;50.948;6.590;2023-12-28T12:40:20;15.20;92.20
74171;DHT22;62526;50.948;6.590;2023-12-28T12:42:53;15.00;92.50
74171;DHT22;62526;50.948;6.590;2023-12-28T12:45:35;15.10;93.20
74171;DHT22;62526;50.948;6.590;2023-12-28T12:48:04;15.40;92.50
74171;DHT22;62526;50.948;6.590;2023-12-28T12:50:44;15.70;92.10
74171;DHT22;62526;50.948;6.590;2023-12-28T12:53:11;15.20;92.00
74171;DHT22;62526;50.948;6.590;2023-12-28T12:55:38;15.00;92.40
74171;DHT22;62526;50.948;6.590;2023-12-28T12:58:05;15.10;92.40
74171;DHT22;62526;50.948;6.590;2023-12-28T13:00:32;15.00;92.60
74171;DHT22;62526;50.948;6.590;2023-12-28T13:02:59;14.90;92.00
74171;DHT22;62526;50.948;6.590;2023-12-28T13:05:36;15.20;93.00
74171;DHT22;62526;50.948;6.590;2023-12-28T13:08:21;15.70;92.40
74171;DHT22;62526;50.948;6.590;2023-12-28T13:10:58;15.60;91.50
74171;DHT22;62526;50.948;6.590;2023-12-28T13:13:31;15.40;91.90
74171;DHT22;62526;50.948;6.590;2023-12-28T13:16:07;15.30;92.20
74171;DHT22;62526;50.948;6.590;2023-12-28T13:18:57;15.20;91.90
74171;DHT22;62526;50.948;6.590;2023-12-28T13:21:23;15.20;91.40
74171;DHT22;62526;50.948;6.590;2023-12-28T13:26:48;14.90;91.90
74171;DHT22;62526;50.948;6.590;2023-12-28T13:29:15;14.90;91.90
74171;DHT22;62526;50.948;6.590;2023-12-28T13:34:28;15.20;91.90
74171;DHT22;62526;50.948;6.590;2023-12-28T13:36:55;15.00;92.20
74171;DHT22;62526;50.948;6.590;2023-12-28T13:39:24;14.80;92.00
74171;DHT22;62526;50.948;6.590;2023-12-28T13:41:51;15.20;92.60
74171;DHT22;62526;50.948;6.590;2023-12-28T13:44:28;15.30;92.10
74171;DHT22;62526;50.948;6.590;2023-12-28T13:49:41;15.20;91.90
74171;DHT22;62526;50.948;6.590;2023-12-28T13:52:08;16.50;92.50
74171;DHT22;62526;50.948;6.590;2023-12-28T13:57:22;15.30;92.10
74171;DHT22;62526;50.948;6.590;2023-12-28T13:59:49;15.10;91.40
74171;DHT22;62526;50.948;6.590;2023-12-28T14:02:16;14.90;92.50
74171;DHT22;62526;50.948;6.590;2023-12-28T14:04:48;15.00;92.10
74171;DHT22;62526;50.948;6.590;2023-12-28T14:07:15;14.80;92.20
74171;DHT22;62526;50.948;6.590;2023-12-28T14:09:50;14.80;92.40
74171;DHT22;62526;50.948;6.590;2023-12-28T14:12:16;15.00;92.10
74171;DHT22;62526;50.948;6.590;2023-12-28T14:14:43;15.00;92.20
74171;DHT22;62526;50.948;6.590;2023-12-28T14:17:10;14.70;92.30
74171;DHT22;62526;50.948;6.590;2023-12-28T14:19:37;15.00;92.40
74171;DHT22;62526;50.948;6.590;2023-12-28T14:22:04;15.10;91.80
74171;DHT22;62526;50.948;6.590;2023-12-28T14:24:34;15.30;92.10
74171;DHT22;62526;50.948;6.590;2023-12-28T14:27:01;15.30;91.40
74171;DHT22;62526;50.948;6.590;2023-12-28T14:29:28;15.00;91.70
74171;DHT22;62526;50.948;6.590;2023-12-28T14:31:55;14.90;91.80
74171;DHT22;62526;50.948;6.590;2023-12-28T14:34:22;14.70;91.90
74171;DHT22;62526;50.948;6.590;2023-12-28T14:36:50;14.40;92.30
74171;DHT22;62526;50.948;6.590;2023-12-28T14:39:17;14.70;92.60
74171;DHT22;62526;50.948;6.590;2023-12-28T14:41:45;14.80;92.40
74171;DHT22;62526;50.948;6.590;2023-12-28T14:44:12;14.90;92.00
74171;DHT22;62526;50.948;6.590;2023-12-28T14:46:38;14.90;92.10
74171;DHT22;62526;50.948;6.590;2023-12-28T14:49:05;15.10;92.10
74171;DHT22;62526;50.948;6.590;2023-12-28T14:51:31;15.40;92.20
74171;DHT22;62526;50.948;6.590;2023-12-28T14:53:58;15.60;91.70
74171;DHT22;62526;50.948;6.590;2023-12-28T14:56:25;15.40;91.50
74171;DHT22;62526;50.948;6.590;2023-12-28T14:58:51;15.10;91.50
74171;DHT22;62526;50.948;6.590;2023-12-28T15:01:18;15.00;91.50
74171;DHT22;62526;50.948;6.590;2023-12-28T15:03:47;15.00;91.70
74171;DHT22;62526;50.948;6.590;2023-12-28T15:06:15;15.20;91.90
74171;DHT22;62526;50.948;6.590;2023-12-28T15:08:41;15.20;91.80
74171;DHT22;62526;50.948;6.590;2023-12-28T15:11:08;15.30;91.70
74171;DHT22;62526;50.948;6.590;2023-12-28T15:13:36;15.20;91.50
74171;DHT22;62526;50.948;6.590;2023-12-28T15:16:02;15.00;92.00
74171;DHT22;62526;50.948;6.590;2023-12-28T15:18:30;15.10;92.00
74171;DHT22;62526;50.948;6.590;2023-12-28T15:20:57;15.10;92.10
74171;DHT22;62526;50.948;6.590;2023-12-28T15:23:24;15.00;92.10
74171;DHT22;62526;50.948;6.590;2023-12-28T15:25:51;15.10;92.40
74171;DHT22;62526;50.948;6.590;2023-12-28T15:28:18;15.20;92.40
74171;DHT22;62526;50.948;6.590;2023-12-28T15:30:44;15.00;92.90
74171;DHT22;62526;50.948;6.590;2023-12-28T15:33:12;15.00;92.70
74171;DHT22;62526;50.948;6.590;2023-12-28T15:35:39;15.20;92.40
74171;DHT22;62526;50.948;6.590;2023-12-28T15:38:08;15.20;92.60
74171;DHT22;62526;50.948;6.590;2023-12-28T15:40:36;15.30;92.70
74171;DHT22;62526;50.948;6.590;2023-12-28T15:43:05;15.30;92.50
74171;DHT22;62526;50.948;6.590;2023-12-28T15:45:32;15.30;92.50
74171;DHT22;62526;50.948;6.590;2023-12-28T15:48:00;14.90;92.90
74171;DHT22;62526;50.948;6.590;2023-12-28T15:50:27;15.00;93.10
74171;DHT22;62526;50.948;6.590;2023-12-28T15:52:56;15.00;93.10
74171;DHT22;62526;50.948;6.590;2023-12-28T15:55:23;14.90;93.10
74171;DHT22;62526;50.948;6.590;2023-12-28T15:57:50;14.90;93.40
74171;DHT22;62526;50.948;6.590;2023-12-28T16:00:16;14.90;93.40
74171;DHT22;62526;50.948;6.590;2023-12-28T16:02:43;14.80;93.60
74171;DHT22;62526;50.948;6.590;2023-12-28T16:07:55;14.40;93.90
74171;DHT22;62526;50.948;6.590;2023-12-28T16:10:22;14.30;94.50
74171;DHT22;62526;50.948;6.590;2023-12-28T16:12:49;14.30;94.70
74171;DHT22;62526;50.948;6.590;2023-12-28T16:15:15;14.40;94.70
74171;DHT22;62526;50.948;6.590;2023-12-28T16:17:43;14.10;94.90
74171;DHT22;62526;50.948;6.590;2023-12-28T16:20:12;14.10;95.00